Clifton, North Dakota
Current Conditions -  °F | °C
As of 3:55 PM on Monday 20 Oct 2014 (Local Time) from K5H4 Reporting Station
Clear Clear  
Wind Chill: 72°   Ceiling: Unl
Heat Index: 72°   Visibility: 10mi
Dew Point: 32°   Wind: 13mph
Humidity: 23%   Direction: 200°SSW
Pressure: 29.97"   Gusts: 17mph
Location:  47.7181°N, 100.121°W
Report Text: K5H4 202055Z AUTO 20011G15KT 10SM CLR 22/00 A2997 RMK AO2
Loading
Personal Weather Stations






























Interactive Weather Map
Tropical Storm Tracking
New forecast layout! Learn more

10-Day Weather Forecast

Advertisements
Track Severe Weather on mobile